Time;durP1;ratioP1;P1;durP2;ratioP2;P2;SDS_P1;SDS_P2;PMS_P1;PMS_P2;Temp;Humidity;BMP_temperature;BMP_pressure;BME280_temperature;BME280_humidity;BME280_pressure;Samples;Min_cycle;Max_cycle;Signal;HPM_P1;HPM_P2
2023/08/22 00:00:15;;;;;;;0.10;0.10;;;;;;;;;;5122835;27;20039;-56
2023/08/22 00:02:41;;;;;;;0.10;0.10;;;;;;;;;;5131317;27;20066;-56
2023/08/22 00:05:08;;;;;;;0.00;0.00;;;;;;;;;;5119478;27;20095;-56
2023/08/22 00:07:34;;;;;;;0.10;0.10;;;;;;;;;;5120986;27;20039;-56
2023/08/22 00:10:00;;;;;;;0.10;0.10;;;;;;;;;;5119333;27;20046;-56
2023/08/22 00:12:27;;;;;;;0.10;0.10;;;;;;;;;;5123966;27;20303;-56
2023/08/22 00:14:53;;;;;;;0.10;0.10;;;;;;;;;;5111326;27;20265;-56
2023/08/22 00:17:19;;;;;;;0.10;0.10;;;;;;;;;;5123541;27;20043;-57
2023/08/22 00:19:45;;;;;;;0.10;0.10;;;;;;;;;;5131678;27;20035;-56
2023/08/22 00:22:12;;;;;;;0.10;0.10;;;;;;;;;;5121898;27;20134;-56
2023/08/22 00:24:38;;;;;;;0.10;0.10;;;;;;;;;;5123517;27;20477;-56
2023/08/22 00:27:04;;;;;;;0.10;0.10;;;;;;;;;;5119402;28;20039;-56
2023/08/22 00:29:30;;;;;;;0.10;0.10;;;;;;;;;;5119524;28;20390;-56
2023/08/22 00:31:57;;;;;;;0.10;0.10;;;;;;;;;;5114401;27;20448;-56
2023/08/22 00:34:23;;;;;;;0.10;0.10;;;;;;;;;;5124213;27;20132;-56
2023/08/22 00:36:50;;;;;;;0.10;0.10;;;;;;;;;;5118683;27;20047;-56
2023/08/22 00:39:16;;;;;;;0.10;0.10;;;;;;;;;;5122415;27;20042;-56
2023/08/22 00:41:42;;;;;;;0.10;0.10;;;;;;;;;;5111553;27;20538;-56
2023/08/22 00:44:08;;;;;;;0.10;0.10;;;;;;;;;;5121750;27;20729;-56
2023/08/22 00:46:35;;;;;;;0.10;0.10;;;;;;;;;;5123627;27;20055;-56
2023/08/22 00:49:04;;;;;;;0.10;0.10;;;;;;;;;;5120871;27;20037;-56
2023/08/22 00:51:30;;;;;;;0.10;0.10;;;;;;;;;;5115074;27;20047;-56
2023/08/22 00:53:57;;;;;;;0.10;0.10;;;;;;;;;;5120550;27;20329;-56
2023/08/22 00:56:23;;;;;;;0.10;0.10;;;;;;;;;;5115409;28;20111;-56
2023/08/22 00:58:49;;;;;;;0.10;0.10;;;;;;;;;;5127192;27;20043;-56
2023/08/22 01:01:15;;;;;;;0.10;0.10;;;;;;;;;;5112621;27;20350;-56
2023/08/22 01:03:42;;;;;;;0.10;0.10;;;;;;;;;;5122201;27;20047;-56
2023/08/22 01:06:10;;;;;;;0.10;0.10;;;;;;;;;;5122319;27;20047;-56
2023/08/22 01:08:39;;;;;;;;;;;;;;;;;;5120539;28;20496;-56
2023/08/22 01:11:10;;;;;;;0.10;0.10;;;;;;;;;;5109652;27;19931;-56
2023/08/22 01:13:39;;;;;;;0.10;0.10;;;;;;;;;;5129305;27;20477;-56
2023/08/22 01:16:06;;;;;;;0.10;0.10;;;;;;;;;;5128053;27;20156;-56
2023/08/22 01:18:33;;;;;;;0.10;0.10;;;;;;;;;;5134593;27;20187;-56
2023/08/22 01:21:06;;;;;;;0.10;0.10;;;;;;;;;;5120477;27;20081;-56
2023/08/22 01:23:33;;;;;;;0.10;0.10;;;;;;;;;;5124492;27;20047;-56
2023/08/22 01:26:00;;;;;;;0.10;0.10;;;;;;;;;;5122163;27;20046;-56
2023/08/22 01:28:31;;;;;;;0.10;0.10;;;;;;;;;;5121767;27;20203;-56
2023/08/22 01:31:00;;;;;;;0.10;0.10;;;;;;;;;;5114311;27;20121;-56
2023/08/22 01:33:36;;;;;;;0.10;0.10;;;;;;;;;;5124938;27;20444;-56
2023/08/22 01:36:03;;;;;;;0.10;0.10;;;;;;;;;;5112471;27;20066;-56
2023/08/22 01:38:30;;;;;;;0.10;0.10;;;;;;;;;;5124551;27;20039;-56
2023/08/22 01:40:57;;;;;;;0.10;0.10;;;;;;;;;;5122498;27;20043;-56
2023/08/22 01:43:24;;;;;;;0.10;0.10;;;;;;;;;;5124091;27;20476;-56
2023/08/22 01:45:50;;;;;;;0.10;0.10;;;;;;;;;;5123045;27;20039;-56
2023/08/22 01:48:16;;;;;;;0.10;0.10;;;;;;;;;;5116454;27;20494;-56
2023/08/22 01:50:43;;;;;;;0.10;0.10;;;;;;;;;;5118574;27;20052;-56
2023/08/22 01:53:09;;;;;;;0.10;0.10;;;;;;;;;;5121091;27;20035;-56
2023/08/22 01:55:35;;;;;;;0.10;0.10;;;;;;;;;;5131393;27;20055;-56
2023/08/22 01:58:04;;;;;;;0.17;0.17;;;;;;;;;;5120948;27;20119;-56
2023/08/22 02:00:30;;;;;;;0.20;0.20;;;;;;;;;;5121559;27;20050;-56
2023/08/22 02:02:56;;;;;;;0.10;0.10;;;;;;;;;;5114806;27;20412;-56
2023/08/22 02:05:23;;;;;;;0.10;0.10;;;;;;;;;;5121541;27;20044;-56
2023/08/22 02:07:49;;;;;;;0.10;0.10;;;;;;;;;;5121938;27;20103;-56
2023/08/22 02:10:15;;;;;;;0.10;0.10;;;;;;;;;;5118715;27;20277;-56
2023/08/22 02:12:42;;;;;;;0.10;0.10;;;;;;;;;;5118102;27;20047;-56
2023/08/22 02:15:09;;;;;;;0.10;0.10;;;;;;;;;;5122303;27;20043;-56
2023/08/22 02:17:35;;;;;;;0.10;0.10;;;;;;;;;;5125255;27;20039;-56
2023/08/22 02:20:02;;;;;;;0.10;0.10;;;;;;;;;;5126458;27;20431;-56
2023/08/22 02:22:28;;;;;;;0.10;0.10;;;;;;;;;;5112299;27;20039;-56
2023/08/22 02:24:54;;;;;;;0.10;0.10;;;;;;;;;;5128550;27;20750;-56
2023/08/22 02:27:21;;;;;;;0.10;0.10;;;;;;;;;;5121987;27;20416;-56
2023/08/22 02:29:47;;;;;;;0.10;0.10;;;;;;;;;;5123760;27;20276;-56
2023/08/22 02:32:14;;;;;;;0.10;0.10;;;;;;;;;;5107864;27;20423;-56
2023/08/22 02:34:40;;;;;;;0.10;0.10;;;;;;;;;;5120716;27;20053;-56
2023/08/22 02:37:07;;;;;;;0.10;0.10;;;;;;;;;;5123755;27;20051;-56
2023/08/22 02:39:33;;;;;;;0.10;0.10;;;;;;;;;;5122672;27;20074;-56
2023/08/22 02:41:59;;;;;;;0.10;0.10;;;;;;;;;;5127515;27;20328;-56
2023/08/22 02:44:26;;;;;;;0.10;0.10;;;;;;;;;;5125698;27;20096;-56
2023/08/22 02:46:52;;;;;;;0.10;0.10;;;;;;;;;;5123768;27;20047;-56
2023/08/22 02:49:18;;;;;;;0.10;0.10;;;;;;;;;;5110109;27;20217;-56
2023/08/22 02:51:44;;;;;;;0.10;0.10;;;;;;;;;;5119527;27;20669;-56
2023/08/22 02:54:11;;;;;;;0.10;0.10;;;;;;;;;;5129782;27;20088;-56
2023/08/22 02:56:37;;;;;;;0.10;0.10;;;;;;;;;;5123132;27;20369;-56
2023/08/22 02:59:03;;;;;;;0.10;0.10;;;;;;;;;;5120489;27;20058;-56
2023/08/22 03:01:29;;;;;;;0.10;0.10;;;;;;;;;;5119497;27;20050;-56
2023/08/22 03:03:56;;;;;;;0.10;0.10;;;;;;;;;;5111217;27;20039;-56
2023/08/22 03:06:22;;;;;;;0.10;0.10;;;;;;;;;;5127866;27;20680;-56
2023/08/22 03:08:49;;;;;;;0.10;0.10;;;;;;;;;;5123086;27;20128;-56
2023/08/22 03:11:15;;;;;;;0.10;0.10;;;;;;;;;;5113450;27;20111;-56
2023/08/22 03:13:41;;;;;;;0.10;0.10;;;;;;;;;;5109827;27;20062;-56
2023/08/22 03:16:08;;;;;;;0.10;0.10;;;;;;;;;;5123054;27;20042;-56
2023/08/22 03:18:34;;;;;;;0.10;0.10;;;;;;;;;;5127169;27;20051;-56
2023/08/22 03:21:00;;;;;;;0.10;0.10;;;;;;;;;;5119844;27;20235;-56
2023/08/22 03:23:27;;;;;;;0.10;0.10;;;;;;;;;;5129525;27;20042;-56
2023/08/22 03:25:55;;;;;;;0.10;0.10;;;;;;;;;;5126428;27;20270;-56
2023/08/22 03:28:21;;;;;;;0.10;0.10;;;;;;;;;;5127354;27;20127;-56
2023/08/22 03:30:47;;;;;;;0.10;0.10;;;;;;;;;;5128744;27;20050;-56
2023/08/22 03:33:13;;;;;;;0.10;0.10;;;;;;;;;;5117884;27;20535;-56
2023/08/22 03:35:40;;;;;;;0.10;0.10;;;;;;;;;;5120432;27;20055;-56
2023/08/22 03:38:06;;;;;;;0.10;0.10;;;;;;;;;;5128112;27;20118;-56
2023/08/22 03:40:32;;;;;;;0.10;0.10;;;;;;;;;;5115253;27;20043;-56
2023/08/22 03:42:58;;;;;;;0.10;0.10;;;;;;;;;;5114967;27;20047;-56
2023/08/22 03:45:25;;;;;;;0.10;0.10;;;;;;;;;;5122266;27;20051;-56
2023/08/22 03:47:51;;;;;;;0.10;0.10;;;;;;;;;;5122296;27;20039;-56
2023/08/22 03:50:17;;;;;;;0.10;0.10;;;;;;;;;;5123503;27;20057;-56
2023/08/22 03:52:43;;;;;;;0.10;0.10;;;;;;;;;;5119903;27;20104;-56
2023/08/22 03:55:10;;;;;;;0.10;0.10;;;;;;;;;;5122145;27;20791;-56
2023/08/22 03:57:36;;;;;;;0.10;0.10;;;;;;;;;;5122486;27;20713;-56
2023/08/22 04:00:04;;;;;;;0.10;0.10;;;;;;;;;;5118889;27;20054;-56
2023/08/22 04:02:30;;;;;;;0.00;0.00;;;;;;;;;;5109678;27;20050;-56
2023/08/22 04:04:56;;;;;;;0.10;0.10;;;;;;;;;;5123267;27;20131;-56
2023/08/22 04:07:24;;;;;;;0.10;0.10;;;;;;;;;;5120242;27;20047;-56
2023/08/22 04:09:50;;;;;;;0.10;0.10;;;;;;;;;;5131387;27;20416;-57
2023/08/22 04:12:16;;;;;;;0.10;0.10;;;;;;;;;;5111148;27;20073;-57
2023/08/22 04:14:43;;;;;;;0.10;0.10;;;;;;;;;;5119953;27;20107;-56
2023/08/22 04:17:09;;;;;;;0.10;0.10;;;;;;;;;;5122469;27;20365;-56
2023/08/22 04:19:35;;;;;;;0.10;0.10;;;;;;;;;;5129833;27;20150;-57
2023/08/22 04:22:01;;;;;;;0.10;0.10;;;;;;;;;;5111536;27;20043;-57
2023/08/22 04:24:28;;;;;;;0.10;0.10;;;;;;;;;;5125171;27;20107;-56
2023/08/22 04:26:55;;;;;;;0.10;0.10;;;;;;;;;;5123256;27;20053;-56
2023/08/22 04:29:21;;;;;;;0.10;0.10;;;;;;;;;;5128959;27;20131;-56
2023/08/22 04:31:47;;;;;;;0.10;0.10;;;;;;;;;;5117218;27;20049;-56
2023/08/22 04:34:14;;;;;;;0.10;0.10;;;;;;;;;;5126354;27;20035;-56
2023/08/22 04:36:40;;;;;;;0.10;0.10;;;;;;;;;;5118818;27;20051;-56
2023/08/22 04:39:06;;;;;;;0.10;0.10;;;;;;;;;;5119430;27;20389;-57
2023/08/22 04:41:33;;;;;;;0.10;0.10;;;;;;;;;;5103733;28;20263;-57
2023/08/22 04:43:59;;;;;;;0.10;0.10;;;;;;;;;;5104449;27;20323;-57
2023/08/22 04:46:25;;;;;;;0.10;0.10;;;;;;;;;;5119057;27;20047;-56
2023/08/22 04:48:51;;;;;;;0.10;0.10;;;;;;;;;;5121326;27;20375;-56
2023/08/22 04:51:18;;;;;;;0.32;0.20;;;;;;;;;;5118656;27;20075;-56
2023/08/22 04:53:46;;;;;;;0.10;0.10;;;;;;;;;;5123175;27;20035;-56
2023/08/22 04:56:13;;;;;;;0.10;0.10;;;;;;;;;;5132197;27;20415;-56
2023/08/22 04:58:39;;;;;;;0.10;0.10;;;;;;;;;;5139030;27;20043;-56
2023/08/22 05:01:06;;;;;;;0.10;0.10;;;;;;;;;;5116803;27;20043;-56
2023/08/22 05:03:32;;;;;;;0.10;0.10;;;;;;;;;;5116089;27;20191;-56
2023/08/22 05:05:58;;;;;;;0.10;0.10;;;;;;;;;;5123603;27;20047;-56
2023/08/22 05:08:24;;;;;;;0.10;0.10;;;;;;;;;;5122876;27;20047;-56
2023/08/22 05:10:51;;;;;;;0.10;0.10;;;;;;;;;;5126808;27;20058;-57
2023/08/22 05:13:17;;;;;;;0.10;0.10;;;;;;;;;;5106643;27;20051;-57
2023/08/22 05:15:43;;;;;;;0.10;0.10;;;;;;;;;;5108096;27;20597;-56
2023/08/22 05:18:09;;;;;;;0.10;0.10;;;;;;;;;;5117418;27;20350;-56
2023/08/22 05:20:37;;;;;;;0.10;0.10;;;;;;;;;;5114221;27;20050;-56
2023/08/22 05:23:03;;;;;;;0.10;0.10;;;;;;;;;;5112527;27;20047;-56
2023/08/22 05:25:29;;;;;;;0.10;0.10;;;;;;;;;;5120793;27;20283;-56
2023/08/22 05:27:56;;;;;;;0.10;0.10;;;;;;;;;;5122660;27;20092;-56
2023/08/22 05:30:22;;;;;;;0.10;0.10;;;;;;;;;;5125053;27;20198;-57
2023/08/22 05:32:48;;;;;;;0.10;0.10;;;;;;;;;;5117724;27;20153;-57
2023/08/22 05:35:15;;;;;;;0.10;0.10;;;;;;;;;;5133029;27;20046;-57
2023/08/22 05:37:41;;;;;;;0.10;0.10;;;;;;;;;;5131243;27;20051;-57
2023/08/22 05:40:08;;;;;;;0.10;0.10;;;;;;;;;;5119254;27;20043;-56
2023/08/22 05:42:34;;;;;;;0.10;0.10;;;;;;;;;;5106180;27;20174;-57
2023/08/22 05:45:01;;;;;;;0.10;0.10;;;;;;;;;;5112365;27;20043;-56
2023/08/22 05:47:27;;;;;;;0.10;0.10;;;;;;;;;;5113598;27;20103;-56
2023/08/22 05:49:53;;;;;;;0.10;0.10;;;;;;;;;;5105811;27;20563;-57
2023/08/22 05:52:20;;;;;;;0.10;0.10;;;;;;;;;;5114683;27;20453;-57
2023/08/22 05:54:46;;;;;;;0.10;0.10;;;;;;;;;;5112821;27;20108;-57
2023/08/22 05:57:12;;;;;;;0.10;0.10;;;;;;;;;;5113059;27;20100;-57
2023/08/22 05:59:38;;;;;;;0.10;0.10;;;;;;;;;;5113454;27;20103;-57
2023/08/22 06:02:05;;;;;;;0.10;0.10;;;;;;;;;;5104459;27;20075;-58
2023/08/22 06:04:31;;;;;;;0.10;0.10;;;;;;;;;;5097877;27;20119;-57
2023/08/22 06:06:58;;;;;;;0.10;0.10;;;;;;;;;;5101648;27;20070;-57
2023/08/22 06:09:24;;;;;;;0.10;0.10;;;;;;;;;;5104237;27;20104;-57
2023/08/22 06:11:50;;;;;;;0.17;0.17;;;;;;;;;;5109860;27;20100;-57
2023/08/22 06:14:16;;;;;;;0.10;0.10;;;;;;;;;;5115424;27;20618;-56
2023/08/22 06:16:43;;;;;;;0.10;0.10;;;;;;;;;;5106735;27;20039;-57
2023/08/22 06:19:09;;;;;;;0.05;0.05;;;;;;;;;;5109978;27;20289;-57
2023/08/22 06:21:35;;;;;;;0.10;0.10;;;;;;;;;;5113400;27;20147;-57
2023/08/22 06:24:02;;;;;;;0.20;0.15;;;;;;;;;;5127494;27;20078;-57
2023/08/22 06:26:28;;;;;;;0.10;0.10;;;;;;;;;;5125359;27;20587;-57
2023/08/22 06:28:54;;;;;;;0.10;0.10;;;;;;;;;;5126420;27;20621;-57
2023/08/22 06:31:21;;;;;;;0.10;0.10;;;;;;;;;;5117705;27;20092;-57
2023/08/22 06:33:47;;;;;;;0.10;0.10;;;;;;;;;;5116792;27;20070;-57
2023/08/22 06:36:13;;;;;;;0.10;0.10;;;;;;;;;;5120734;27;20051;-56
2023/08/22 06:38:40;;;;;;;0.10;0.10;;;;;;;;;;5111624;27;20673;-56
2023/08/22 06:41:07;;;;;;;0.10;0.10;;;;;;;;;;5104688;27;20097;-56
2023/08/22 06:43:34;;;;;;;0.10;0.10;;;;;;;;;;5102378;27;20054;-57
2023/08/22 06:46:00;;;;;;;0.20;0.20;;;;;;;;;;5110158;27;20054;-57
2023/08/22 06:48:27;;;;;;;0.10;0.10;;;;;;;;;;5111665;27;20138;-57
2023/08/22 06:51:07;;;;;;;0.10;0.10;;;;;;;;;;5113177;27;20491;-57
2023/08/22 06:53:34;;;;;;;0.10;0.10;;;;;;;;;;5095249;27;20361;-56
2023/08/22 06:56:01;;;;;;;0.20;0.20;;;;;;;;;;5095381;27;20039;-56
2023/08/22 06:58:27;;;;;;;0.10;0.10;;;;;;;;;;5100427;27;20071;-56
2023/08/22 07:00:54;;;;;;;0.10;0.10;;;;;;;;;;5099162;27;20099;-56
2023/08/22 07:03:20;;;;;;;0.10;0.10;;;;;;;;;;5087287;27;20235;-57
2023/08/22 07:05:50;;;;;;;0.10;0.10;;;;;;;;;;5084457;27;20411;-57
2023/08/22 07:08:17;;;;;;;0.10;0.10;;;;;;;;;;5094671;27;20529;-57
2023/08/22 07:10:43;;;;;;;0.10;0.10;;;;;;;;;;5098031;27;20093;-57
2023/08/22 07:13:10;;;;;;;0.15;0.15;;;;;;;;;;5081573;27;20051;-57
2023/08/22 07:15:36;;;;;;;0.20;0.20;;;;;;;;;;5102168;27;20039;-57
2023/08/22 07:18:02;;;;;;;0.10;0.10;;;;;;;;;;5108173;27;20108;-57
2023/08/22 07:20:29;;;;;;;0.10;0.10;;;;;;;;;;5106474;27;20050;-57
2023/08/22 07:22:55;;;;;;;0.10;0.10;;;;;;;;;;5114186;27;20107;-57
2023/08/22 07:25:21;;;;;;;0.10;0.10;;;;;;;;;;5109715;27;20090;-57
2023/08/22 07:27:47;;;;;;;0.10;0.10;;;;;;;;;;5097753;27;20040;-57
2023/08/22 07:30:14;;;;;;;0.10;0.10;;;;;;;;;;5114733;27;20101;-57
2023/08/22 07:32:40;;;;;;;0.10;0.10;;;;;;;;;;5108735;27;20047;-57
2023/08/22 07:35:07;;;;;;;0.10;0.10;;;;;;;;;;5108251;27;20039;-57
2023/08/22 07:37:34;;;;;;;0.10;0.10;;;;;;;;;;5114441;27;20110;-57
2023/08/22 07:40:00;;;;;;;0.10;0.10;;;;;;;;;;5114879;27;20047;-57
2023/08/22 07:42:26;;;;;;;0.10;0.10;;;;;;;;;;5106762;27;20044;-57
2023/08/22 07:44:53;;;;;;;0.10;0.10;;;;;;;;;;5110634;27;20051;-57
2023/08/22 07:47:19;;;;;;;0.10;0.10;;;;;;;;;;5095592;27;20063;-57
2023/08/22 07:49:45;;;;;;;0.10;0.10;;;;;;;;;;5112278;27;20043;-57
2023/08/22 07:52:12;;;;;;;0.20;0.20;;;;;;;;;;5105405;27;20567;-57
2023/08/22 07:54:38;;;;;;;0.10;0.10;;;;;;;;;;5106795;27;20054;-57
2023/08/22 07:57:04;;;;;;;0.10;0.10;;;;;;;;;;5106986;27;20035;-57
2023/08/22 07:59:44;;;;;;;0.10;0.10;;;;;;;;;;5109201;27;20061;-57
2023/08/22 08:02:10;;;;;;;0.10;0.10;;;;;;;;;;5097519;27;20058;-57
2023/08/22 08:04:37;;;;;;;0.10;0.10;;;;;;;;;;5111523;27;20046;-57
2023/08/22 08:07:03;;;;;;;0.10;0.10;;;;;;;;;;5102154;27;20039;-57
2023/08/22 08:09:29;;;;;;;0.10;0.10;;;;;;;;;;5095055;27;20043;-57
2023/08/22 08:12:01;;;;;;;0.10;0.10;;;;;;;;;;5106031;27;20215;-57
2023/08/22 08:14:27;;;;;;;0.10;0.10;;;;;;;;;;5098697;27;20043;-57
2023/08/22 08:16:53;;;;;;;0.10;0.10;;;;;;;;;;5103901;27;20051;-56
2023/08/22 08:19:20;;;;;;;0.10;0.10;;;;;;;;;;5095445;27;20050;-56
2023/08/22 08:21:48;;;;;;;;;;;;;;;;;;5101929;27;20213;-57
2023/08/22 08:24:15;;;;;;;0.10;0.10;;;;;;;;;;5099863;27;20192;-56
2023/08/22 08:26:41;;;;;;;0.10;0.10;;;;;;;;;;5102327;27;20692;-57
2023/08/22 08:29:07;;;;;;;0.10;0.10;;;;;;;;;;5102412;27;20051;-57
2023/08/22 08:31:33;;;;;;;0.10;0.10;;;;;;;;;;5098844;27;20058;-57
2023/08/22 08:34:00;;;;;;;0.10;0.10;;;;;;;;;;5089817;27;20469;-57
2023/08/22 08:36:30;;;;;;;0.10;0.10;;;;;;;;;;5074490;27;20592;-56
2023/08/22 08:38:56;;;;;;;0.10;0.10;;;;;;;;;;5093022;27;20437;-56
2023/08/22 08:41:23;;;;;;;0.10;0.10;;;;;;;;;;5097400;28;20101;-56
2023/08/22 08:43:50;;;;;;;0.10;0.10;;;;;;;;;;5090207;28;20044;-61
2023/08/22 08:46:16;;;;;;;0.10;0.10;;;;;;;;;;5101661;27;20312;-57
2023/08/22 08:48:44;;;;;;;0.13;0.13;;;;;;;;;;5099393;28;20339;-57
2023/08/22 08:51:10;;;;;;;0.10;0.10;;;;;;;;;;5099956;27;20051;-57
2023/08/22 08:53:37;;;;;;;0.10;0.10;;;;;;;;;;5103908;27;20347;-57
2023/08/22 08:56:09;;;;;;;0.10;0.10;;;;;;;;;;5108457;27;20320;-57
2023/08/22 08:58:36;;;;;;;0.10;0.10;;;;;;;;;;5103646;27;20196;-56
2023/08/22 09:01:02;;;;;;;0.10;0.10;;;;;;;;;;5101554;27;20115;-57
2023/08/22 09:03:29;;;;;;;0.10;0.10;;;;;;;;;;5101560;27;20070;-57
2023/08/22 09:05:55;;;;;;;0.10;0.10;;;;;;;;;;5102458;27;20318;-57
2023/08/22 09:08:23;;;;;;;0.10;0.10;;;;;;;;;;5104224;27;20039;-57
2023/08/22 09:10:50;;;;;;;0.10;0.10;;;;;;;;;;5100357;28;20280;-57
2023/08/22 09:13:24;;;;;;;0.10;0.10;;;;;;;;;;5090260;28;20080;-57
2023/08/22 09:15:51;;;;;;;0.10;0.10;;;;;;;;;;5104601;27;20070;-57
2023/08/22 09:18:18;;;;;;;0.10;0.10;;;;;;;;;;5099078;27;21041;-57
2023/08/22 09:20:45;;;;;;;0.10;0.10;;;;;;;;;;5095949;27;20472;-57
2023/08/22 09:23:20;;;;;;;0.10;0.10;;;;;;;;;;5100208;28;20043;-57
2023/08/22 09:25:46;;;;;;;0.10;0.10;;;;;;;;;;5101096;27;20112;-57
2023/08/22 09:28:15;;;;;;;0.10;0.10;;;;;;;;;;5096090;27;20128;-57
2023/08/22 09:30:45;;;;;;;0.10;0.10;;;;;;;;;;5099595;27;20983;-57
2023/08/22 09:33:12;;;;;;;0.10;0.10;;;;;;;;;;5091233;27;20050;-56
2023/08/22 09:35:38;;;;;;;0.10;0.10;;;;;;;;;;5085358;27;20189;-56
2023/08/22 09:38:06;;;;;;;0.10;0.10;;;;;;;;;;5088685;27;20312;-56
2023/08/22 09:40:33;;;;;;;0.10;0.10;;;;;;;;;;5094625;27;20046;-57
2023/08/22 09:43:01;;;;;;;0.10;0.10;;;;;;;;;;5095333;27;20047;-57
2023/08/22 09:45:28;;;;;;;0.10;0.10;;;;;;;;;;5100913;27;20051;-57
2023/08/22 09:47:56;;;;;;;0.10;0.10;;;;;;;;;;5095806;27;20057;-57
2023/08/22 09:50:25;;;;;;;0.10;0.10;;;;;;;;;;5103954;27;20093;-58
2023/08/22 09:52:52;;;;;;;0.10;0.10;;;;;;;;;;5100494;27;20778;-57
2023/08/22 09:55:19;;;;;;;0.20;0.20;;;;;;;;;;5109893;27;20058;-57
2023/08/22 09:57:45;;;;;;;0.10;0.10;;;;;;;;;;5108798;27;20054;-57
2023/08/22 10:00:13;;;;;;;0.10;0.10;;;;;;;;;;5106230;27;20495;-57
2023/08/22 10:02:39;;;;;;;0.10;0.10;;;;;;;;;;5104412;27;20550;-57
2023/08/22 10:05:07;;;;;;;0.10;0.10;;;;;;;;;;5110742;27;20043;-57
2023/08/22 10:07:33;;;;;;;0.10;0.10;;;;;;;;;;5100070;27;20710;-57
2023/08/22 10:10:00;;;;;;;0.10;0.10;;;;;;;;;;5101970;27;20126;-57
2023/08/22 10:12:27;;;;;;;0.10;0.10;;;;;;;;;;5106320;27;20495;-57
2023/08/22 10:14:57;;;;;;;0.10;0.10;;;;;;;;;;5108118;27;20151;-57
2023/08/22 10:17:27;;;;;;;0.55;0.15;;;;;;;;;;5110253;27;20110;-57
2023/08/22 10:20:04;;;;;;;0.10;0.10;;;;;;;;;;5106410;27;20465;-56
2023/08/22 10:22:32;;;;;;;0.10;0.10;;;;;;;;;;5103285;27;20546;-56
2023/08/22 10:25:06;;;;;;;0.10;0.10;;;;;;;;;;5104314;27;20384;-57
2023/08/22 10:27:35;;;;;;;0.10;0.10;;;;;;;;;;5098801;27;20066;-56
2023/08/22 10:30:18;;;;;;;0.10;0.10;;;;;;;;;;5105290;27;20047;-56
2023/08/22 10:33:05;;;;;;;0.10;0.10;;;;;;;;;;5107924;27;21473;-56
2023/08/22 10:36:00;;;;;;;0.03;0.03;;;;;;;;;;5093362;27;20047;-57
2023/08/22 10:38:26;;;;;;;0.10;0.10;;;;;;;;;;5102684;27;20062;-56
2023/08/22 10:40:54;;;;;;;0.30;0.30;;;;;;;;;;5092361;27;20081;-57
2023/08/22 10:43:34;;;;;;;0.10;0.10;;;;;;;;;;5096262;27;20259;-56
2023/08/22 10:46:00;;;;;;;0.10;0.10;;;;;;;;;;5085458;27;20043;-57
2023/08/22 10:48:31;;;;;;;0.10;0.10;;;;;;;;;;5083305;27;21222;-57
2023/08/22 10:51:06;;;;;;;0.10;0.10;;;;;;;;;;5094816;27;20035;-56
2023/08/22 10:53:41;;;;;;;0.10;0.10;;;;;;;;;;5097965;27;20054;-56
2023/08/22 10:56:23;;;;;;;0.10;0.10;;;;;;;;;;5084054;27;20051;-56
2023/08/22 10:58:58;;;;;;;0.10;0.10;;;;;;;;;;5100810;27;20436;-57
2023/08/22 11:01:24;;;;;;;0.10;0.10;;;;;;;;;;5095338;27;20095;-57
2023/08/22 11:03:51;;;;;;;0.10;0.10;;;;;;;;;;5090126;27;20442;-56
2023/08/22 11:06:18;;;;;;;0.10;0.10;;;;;;;;;;5082698;27;20053;-56
2023/08/22 11:08:45;;;;;;;0.10;0.10;;;;;;;;;;5092114;27;20485;-57
2023/08/22 11:11:12;;;;;;;0.10;0.10;;;;;;;;;;5105598;27;20043;-56
2023/08/22 11:13:39;;;;;;;0.10;0.10;;;;;;;;;;5096768;27;20039;-56
2023/08/22 11:16:08;;;;;;;0.10;0.10;;;;;;;;;;5093285;27;20478;-57
2023/08/22 11:18:35;;;;;;;0.10;0.10;;;;;;;;;;5097371;27;20066;-57
2023/08/22 11:21:02;;;;;;;0.10;0.10;;;;;;;;;;5109197;27;20686;-56
2023/08/22 11:23:30;;;;;;;0.10;0.10;;;;;;;;;;5103703;27;20043;-57
2023/08/22 11:25:56;;;;;;;0.08;0.08;;;;;;;;;;5100899;27;20042;-56
2023/08/22 11:28:31;;;;;;;0.10;0.10;;;;;;;;;;5110334;27;20047;-57
2023/08/22 11:30:57;;;;;;;0.10;0.10;;;;;;;;;;5106476;27;20043;-56
2023/08/22 11:33:24;;;;;;;0.10;0.10;;;;;;;;;;5104825;27;20051;-57
2023/08/22 11:35:52;;;;;;;0.10;0.10;;;;;;;;;;5100595;27;20047;-57
2023/08/22 11:38:18;;;;;;;0.10;0.10;;;;;;;;;;5103020;27;20043;-57
2023/08/22 11:40:45;;;;;;;0.10;0.10;;;;;;;;;;5100882;27;20043;-57
2023/08/22 11:43:13;;;;;;;0.10;0.10;;;;;;;;;;5087891;27;20103;-56
2023/08/22 11:45:46;;;;;;;0.10;0.10;;;;;;;;;;5086536;27;20047;-56
2023/08/22 11:48:15;;;;;;;0.10;0.10;;;;;;;;;;5092669;27;20176;-56
2023/08/22 11:50:42;;;;;;;0.10;0.10;;;;;;;;;;5099959;27;20048;-56
2023/08/22 11:53:11;;;;;;;0.10;0.10;;;;;;;;;;5095028;27;20035;-57
2023/08/22 11:55:40;;;;;;;0.10;0.10;;;;;;;;;;5101166;27;20068;-58
2023/08/22 11:58:10;;;;;;;0.10;0.10;;;;;;;;;;5110889;27;20047;-56
2023/08/22 12:00:36;;;;;;;0.20;0.20;;;;;;;;;;5104010;27;20100;-57
2023/08/22 12:03:05;;;;;;;0.10;0.10;;;;;;;;;;5105449;27;20047;-56
2023/08/22 12:05:36;;;;;;;0.10;0.10;;;;;;;;;;5104793;27;20158;-56
2023/08/22 12:10:42;;;;;;;0.10;0.10;;;;;;;;;;5133076;27;20271;-54
2023/08/22 12:13:08;;;;;;;0.15;0.15;;;;;;;;;;5146582;27;20501;-55
2023/08/22 12:15:34;;;;;;;0.10;0.10;;;;;;;;;;5122951;27;20054;-54
2023/08/22 12:18:00;;;;;;;0.10;0.10;;;;;;;;;;5132363;27;20069;-54
2023/08/22 12:20:25;;;;;;;0.10;0.10;;;;;;;;;;5136920;27;20042;-54
2023/08/22 12:22:51;;;;;;;0.10;0.10;;;;;;;;;;5143641;27;20111;-54
2023/08/22 12:25:17;;;;;;;0.10;0.10;;;;;;;;;;5121480;27;20042;-57
2023/08/22 12:27:42;;;;;;;0.10;0.10;;;;;;;;;;5141837;27;20035;-57
2023/08/22 12:30:08;;;;;;;0.10;0.10;;;;;;;;;;5151177;27;20038;-57
2023/08/22 12:32:34;;;;;;;0.10;0.10;;;;;;;;;;5141529;27;20581;-57
2023/08/22 12:35:00;;;;;;;0.10;0.10;;;;;;;;;;5144070;27;20085;-57
2023/08/22 12:37:26;;;;;;;0.20;0.10;;;;;;;;;;5148299;27;20082;-57
2023/08/22 12:39:51;;;;;;;0.10;0.10;;;;;;;;;;5138862;27;20057;-57
2023/08/22 12:42:17;;;;;;;0.10;0.10;;;;;;;;;;5149363;27;21287;-57
2023/08/22 12:44:43;;;;;;;0.10;0.10;;;;;;;;;;5148412;27;20046;-56
2023/08/22 12:47:08;;;;;;;0.10;0.10;;;;;;;;;;5147150;27;20115;-56
2023/08/22 12:49:34;;;;;;;0.10;0.10;;;;;;;;;;5141836;27;20473;-57
2023/08/22 12:52:00;;;;;;;0.10;0.10;;;;;;;;;;5144168;27;20287;-56
2023/08/22 12:54:26;;;;;;;0.10;0.10;;;;;;;;;;5145918;27;20115;-56
2023/08/22 12:56:51;;;;;;;0.10;0.10;;;;;;;;;;5138139;27;20046;-56
2023/08/22 12:59:17;;;;;;;0.10;0.10;;;;;;;;;;5144923;27;20099;-57
2023/08/22 13:01:42;;;;;;;0.10;0.10;;;;;;;;;;5138348;27;20631;-57
2023/08/22 13:04:09;;;;;;;0.10;0.10;;;;;;;;;;5130975;27;20042;-56
2023/08/22 13:06:35;;;;;;;0.17;0.17;;;;;;;;;;5133749;27;20355;-57
2023/08/22 13:09:04;;;;;;;0.10;0.10;;;;;;;;;;5132564;27;20043;-57
2023/08/22 13:11:29;;;;;;;0.10;0.10;;;;;;;;;;5126747;27;20061;-57
2023/08/22 13:13:55;;;;;;;0.17;0.17;;;;;;;;;;5118268;27;20050;-56
2023/08/22 13:16:20;;;;;;;0.10;0.10;;;;;;;;;;5107677;27;20167;-57
2023/08/22 13:18:47;;;;;;;0.10;0.10;;;;;;;;;;5128468;27;20094;-56
2023/08/22 13:21:12;;;;;;;0.10;0.10;;;;;;;;;;5122065;27;20044;-57
2023/08/22 13:23:38;;;;;;;0.10;0.10;;;;;;;;;;5113652;28;20115;-57
2023/08/22 13:26:04;;;;;;;0.10;0.10;;;;;;;;;;5115384;28;20050;-57
2023/08/22 13:28:29;;;;;;;0.10;0.10;;;;;;;;;;5116087;28;20043;-57
2023/08/22 13:30:55;;;;;;;0.13;0.13;;;;;;;;;;5114637;28;20675;-57
2023/08/22 13:33:20;;;;;;;0.10;0.10;;;;;;;;;;5114845;27;20454;-57
2023/08/22 13:35:46;;;;;;;0.10;0.10;;;;;;;;;;5114692;28;20135;-57
2023/08/22 13:38:11;;;;;;;0.10;0.10;;;;;;;;;;5111320;28;20043;-57
2023/08/22 13:40:37;;;;;;;0.10;0.10;;;;;;;;;;5107274;27;20047;-57
2023/08/22 13:43:03;;;;;;;0.10;0.10;;;;;;;;;;5115661;28;20077;-57
2023/08/22 13:45:29;;;;;;;0.10;0.10;;;;;;;;;;5112823;27;20466;-57
2023/08/22 13:47:55;;;;;;;0.10;0.10;;;;;;;;;;5112096;27;20746;-58
2023/08/22 13:50:21;;;;;;;0.10;0.10;;;;;;;;;;5114609;27;20656;-57
2023/08/22 13:52:47;;;;;;;0.10;0.10;;;;;;;;;;5110242;27;20773;-63
2023/08/22 13:55:14;;;;;;;0.10;0.10;;;;;;;;;;5117878;27;20042;-57
2023/08/22 13:57:39;;;;;;;0.10;0.10;;;;;;;;;;5115600;28;20069;-58
2023/08/22 14:00:06;;;;;;;0.10;0.10;;;;;;;;;;5114849;28;20051;-60
2023/08/22 14:02:32;;;;;;;0.10;0.10;;;;;;;;;;5115767;28;20559;-62
2023/08/22 14:04:57;;;;;;;0.10;0.10;;;;;;;;;;5117298;28;20058;-57
2023/08/22 14:07:23;;;;;;;0.10;0.10;;;;;;;;;;5115294;28;20055;-58
2023/08/22 14:09:49;;;;;;;0.10;0.10;;;;;;;;;;5125482;27;20047;-58
2023/08/22 14:12:15;;;;;;;0.10;0.10;;;;;;;;;;5115538;27;20104;-57
2023/08/22 14:14:41;;;;;;;0.10;0.10;;;;;;;;;;5115618;28;20039;-57
2023/08/22 14:17:06;;;;;;;0.10;0.10;;;;;;;;;;5118489;28;20055;-57
2023/08/22 14:19:32;;;;;;;0.10;0.10;;;;;;;;;;5117846;28;20070;-57
2023/08/22 14:21:57;;;;;;;0.10;0.10;;;;;;;;;;5116315;28;20054;-58
2023/08/22 14:24:23;;;;;;;0.10;0.10;;;;;;;;;;5113762;28;20488;-57
2023/08/22 14:26:48;;;;;;;0.10;0.10;;;;;;;;;;5114599;28;20051;-57
2023/08/22 14:29:14;;;;;;;0.10;0.10;;;;;;;;;;5115219;28;20473;-57
2023/08/22 14:31:39;;;;;;;0.10;0.10;;;;;;;;;;5114365;27;20526;-57
2023/08/22 14:34:05;;;;;;;0.10;0.10;;;;;;;;;;5105728;27;20054;-57
2023/08/22 14:36:30;;;;;;;0.10;0.10;;;;;;;;;;5116640;28;20228;-57
2023/08/22 14:38:56;;;;;;;0.10;0.10;;;;;;;;;;5118311;28;20059;-57
2023/08/22 14:41:21;;;;;;;0.10;0.10;;;;;;;;;;5116503;28;20051;-56
2023/08/22 14:43:47;;;;;;;0.10;0.10;;;;;;;;;;5116379;28;20400;-55